sensor_id;sensor_type;location;lat;lon;timestamp;pressure;altitude;pressure_sealevel;temperature;humidity
65280;BME280;51878;55.748;48.742;2022-07-23T00:00:19;98640.28;;;18.48;74.66
65280;BME280;51878;55.748;48.742;2022-07-23T00:02:46;98602.66;;;18.21;74.89
65280;BME280;51878;55.748;48.742;2022-07-23T00:05:14;98584.72;;;18.13;74.91
65280;BME280;51878;55.748;48.742;2022-07-23T00:07:41;98597.91;;;18.16;75.01
65280;BME280;51878;55.748;48.742;2022-07-23T00:10:09;98631.91;;;18.37;75.14
65280;BME280;51878;55.748;48.742;2022-07-23T00:12:37;98589.63;;;18.11;75.16
65280;BME280;51878;55.748;48.742;2022-07-23T00:15:08;98605.28;;;18.11;75.24
65280;BME280;51878;55.748;48.742;2022-07-23T00:17:35;98624.91;;;18.25;75.72
65280;BME280;51878;55.748;48.742;2022-07-23T00:20:03;98643.66;;;18.33;75.84
65280;BME280;51878;55.748;48.742;2022-07-23T00:22:30;98634.53;;;18.27;76.51
65280;BME280;51878;55.748;48.742;2022-07-23T00:24:57;98635.31;;;18.23;76.41
65280;BME280;51878;55.748;48.742;2022-07-23T00:27:44;98555.31;;;17.65;78.30
65280;BME280;51878;55.748;48.742;2022-07-23T00:30:12;98634.84;;;18.04;78.83
65280;BME280;51878;55.748;48.742;2022-07-23T00:32:51;98614.59;;;17.88;79.45
65280;BME280;51878;55.748;48.742;2022-07-23T00:35:23;98587.66;;;17.63;80.22
65280;BME280;51878;55.748;48.742;2022-07-23T00:37:50;98613.63;;;17.77;82.48
65280;BME280;51878;55.748;48.742;2022-07-23T00:40:18;98646.81;;;17.98;82.82
65280;BME280;51878;55.748;48.742;2022-07-23T00:42:45;98631.63;;;17.90;83.66
65280;BME280;51878;55.748;48.742;2022-07-23T00:45:13;98630.22;;;17.87;83.47
65280;BME280;51878;55.748;48.742;2022-07-23T00:47:40;98653.66;;;17.95;83.61
65280;BME280;51878;55.748;48.742;2022-07-23T00:50:08;98639.13;;;17.77;83.70
65280;BME280;51878;55.748;48.742;2022-07-23T00:52:37;98659.13;;;17.78;84.78
65280;BME280;51878;55.748;48.742;2022-07-23T00:55:06;98616.16;;;17.62;85.39
65280;BME280;51878;55.748;48.742;2022-07-23T00:57:36;98658.56;;;17.93;85.13
65280;BME280;51878;55.748;48.742;2022-07-23T01:00:10;98650.06;;;17.94;85.06
65280;BME280;51878;55.748;48.742;2022-07-23T01:02:38;98648.94;;;17.90;84.61
65280;BME280;51878;55.748;48.742;2022-07-23T01:05:06;98652.69;;;17.84;85.39
65280;BME280;51878;55.748;48.742;2022-07-23T01:07:34;98662.56;;;17.85;87.10
65280;BME280;51878;55.748;48.742;2022-07-23T01:10:02;98646.25;;;17.79;86.84
65280;BME280;51878;55.748;48.742;2022-07-23T01:12:29;98649.41;;;17.87;86.22
65280;BME280;51878;55.748;48.742;2022-07-23T01:14:58;98672.28;;;17.93;87.29
65280;BME280;51878;55.748;48.742;2022-07-23T01:17:26;98641.53;;;17.74;88.12
65280;BME280;51878;55.748;48.742;2022-07-23T01:19:53;98604.72;;;17.48;92.24
65280;BME280;51878;55.748;48.742;2022-07-23T01:22:20;98655.25;;;17.74;92.95
65280;BME280;51878;55.748;48.742;2022-07-23T01:24:48;98633.44;;;17.62;93.30
65280;BME280;51878;55.748;48.742;2022-07-23T01:27:15;98635.91;;;17.64;92.83
65280;BME280;51878;55.748;48.742;2022-07-23T01:29:44;98673.28;;;17.87;92.66
65280;BME280;51878;55.748;48.742;2022-07-23T01:32:12;98681.25;;;17.88;92.80
65280;BME280;51878;55.748;48.742;2022-07-23T01:34:39;98652.25;;;17.75;93.02
65280;BME280;51878;55.748;48.742;2022-07-23T01:37:07;98685.06;;;17.87;93.82
65280;BME280;51878;55.748;48.742;2022-07-23T01:39:34;98653.50;;;17.85;93.90
65280;BME280;51878;55.748;48.742;2022-07-23T01:42:02;98661.06;;;17.77;94.36
65280;BME280;51878;55.748;48.742;2022-07-23T01:44:29;98655.25;;;17.74;94.67
65280;BME280;51878;55.748;48.742;2022-07-23T01:46:56;98682.97;;;17.94;94.52
65280;BME280;51878;55.748;48.742;2022-07-23T01:49:23;98686.88;;;17.99;94.53
65280;BME280;51878;55.748;48.742;2022-07-23T01:51:50;98655.31;;;17.79;94.79
65280;BME280;51878;55.748;48.742;2022-07-23T01:54:32;98693.44;;;17.81;95.96
65280;BME280;51878;55.748;48.742;2022-07-23T01:57:00;98689.22;;;17.90;95.13
65280;BME280;51878;55.748;48.742;2022-07-23T01:59:28;98678.44;;;17.83;94.79
65280;BME280;51878;55.748;48.742;2022-07-23T02:01:55;98693.88;;;17.89;94.12
65280;BME280;51878;55.748;48.742;2022-07-23T02:04:24;98683.53;;;17.96;94.12
65280;BME280;51878;55.748;48.742;2022-07-23T02:06:52;98691.19;;;17.94;94.15
65280;BME280;51878;55.748;48.742;2022-07-23T02:09:19;98582.16;;;17.41;92.92
65280;BME280;51878;55.748;48.742;2022-07-23T02:11:47;98677.63;;;18.05;92.26
65280;BME280;51878;55.748;48.742;2022-07-23T02:14:14;98692.31;;;18.15;91.55
65280;BME280;51878;55.748;48.742;2022-07-23T02:16:41;98657.28;;;18.01;91.12
65280;BME280;51878;55.748;48.742;2022-07-23T02:19:08;98702.94;;;18.12;91.21
65280;BME280;51878;55.748;48.742;2022-07-23T02:21:35;98685.72;;;18.16;90.72
65280;BME280;51878;55.748;48.742;2022-07-23T02:24:04;98688.16;;;18.13;90.94
65280;BME280;51878;55.748;48.742;2022-07-23T02:26:31;98675.28;;;18.13;90.45
65280;BME280;51878;55.748;48.742;2022-07-23T02:29:02;98696.06;;;18.31;90.17
65280;BME280;51878;55.748;48.742;2022-07-23T02:31:30;98698.31;;;18.34;89.51
65280;BME280;51878;55.748;48.742;2022-07-23T02:33:58;98653.06;;;18.15;88.71
65280;BME280;51878;55.748;48.742;2022-07-23T02:36:25;98655.81;;;18.37;87.89
65280;BME280;51878;55.748;48.742;2022-07-23T02:38:52;98690.31;;;18.55;87.43
65280;BME280;51878;55.748;48.742;2022-07-23T02:41:19;98687.69;;;18.65;87.53
65280;BME280;51878;55.748;48.742;2022-07-23T02:43:47;98669.13;;;18.50;87.14
65280;BME280;51878;55.748;48.742;2022-07-23T02:46:14;98697.44;;;18.56;87.41
65280;BME280;51878;55.748;48.742;2022-07-23T02:48:41;98692.84;;;18.84;86.27
65280;BME280;51878;55.748;48.742;2022-07-23T02:51:08;98652.59;;;18.72;85.27
65280;BME280;51878;55.748;48.742;2022-07-23T02:53:36;98680.47;;;18.81;85.64
65280;BME280;51878;55.748;48.742;2022-07-23T02:56:03;98693.91;;;19.10;84.43
65280;BME280;51878;55.748;48.742;2022-07-23T02:58:30;98666.38;;;19.05;83.89
65280;BME280;51878;55.748;48.742;2022-07-23T03:00:58;98657.06;;;19.06;83.39
65280;BME280;51878;55.748;48.742;2022-07-23T03:03:25;98692.81;;;19.43;82.37
65280;BME280;51878;55.748;48.742;2022-07-23T03:05:55;98659.72;;;19.33;80.98
65280;BME280;51878;55.748;48.742;2022-07-23T03:08:22;98695.50;;;19.70;80.46
65280;BME280;51878;55.748;48.742;2022-07-23T03:10:49;98644.00;;;19.60;79.47
65280;BME280;51878;55.748;48.742;2022-07-23T03:13:16;98647.09;;;19.69;79.15
65280;BME280;51878;55.748;48.742;2022-07-23T03:15:44;98638.63;;;19.81;78.91
65280;BME280;51878;55.748;48.742;2022-07-23T03:18:11;98652.38;;;19.76;79.89
65280;BME280;51878;55.748;48.742;2022-07-23T03:20:38;98686.59;;;20.00;80.34
65280;BME280;51878;55.748;48.742;2022-07-23T03:23:05;98698.25;;;20.18;80.00
65280;BME280;51878;55.748;48.742;2022-07-23T03:25:32;98689.25;;;20.33;79.48
65280;BME280;51878;55.748;48.742;2022-07-23T03:28:00;98659.78;;;20.38;78.21
65280;BME280;51878;55.748;48.742;2022-07-23T03:30:27;98652.28;;;20.23;76.99
65280;BME280;51878;55.748;48.742;2022-07-23T03:32:54;98665.84;;;20.40;76.19
65280;BME280;51878;55.748;48.742;2022-07-23T03:35:21;98651.81;;;20.52;75.15
65280;BME280;51878;55.748;48.742;2022-07-23T03:37:48;98671.47;;;20.71;74.00
65280;BME280;51878;55.748;48.742;2022-07-23T03:40:16;98678.38;;;20.94;74.06
65280;BME280;51878;55.748;48.742;2022-07-23T03:42:43;98692.47;;;21.03;74.50
65280;BME280;51878;55.748;48.742;2022-07-23T03:45:10;98688.63;;;21.24;73.76
65280;BME280;51878;55.748;48.742;2022-07-23T03:47:37;98673.72;;;21.20;73.09
65280;BME280;51878;55.748;48.742;2022-07-23T03:50:06;98695.84;;;21.41;72.65
65280;BME280;51878;55.748;48.742;2022-07-23T03:52:33;98654.16;;;21.12;73.78
65280;BME280;51878;55.748;48.742;2022-07-23T03:55:01;98696.38;;;21.48;73.26
65280;BME280;51878;55.748;48.742;2022-07-23T03:57:29;98693.63;;;21.48;73.63
65280;BME280;51878;55.748;48.742;2022-07-23T03:59:57;98692.50;;;21.54;72.98
65280;BME280;51878;55.748;48.742;2022-07-23T04:02:24;98672.88;;;21.71;70.36
65280;BME280;51878;55.748;48.742;2022-07-23T04:04:51;98664.06;;;21.69;70.14
65280;BME280;51878;55.748;48.742;2022-07-23T04:07:18;98698.81;;;21.85;69.56
65280;BME280;51878;55.748;48.742;2022-07-23T04:09:46;98686.69;;;21.71;71.26
65280;BME280;51878;55.748;48.742;2022-07-23T04:12:13;98614.41;;;21.38;71.59
65280;BME280;51878;55.748;48.742;2022-07-23T04:14:40;98692.75;;;21.83;71.64
65280;BME280;51878;55.748;48.742;2022-07-23T04:17:08;98690.19;;;22.07;71.53
65280;BME280;51878;55.748;48.742;2022-07-23T04:19:35;98633.13;;;21.77;71.12
65280;BME280;51878;55.748;48.742;2022-07-23T04:22:07;98670.25;;;22.16;69.91
65280;BME280;51878;55.748;48.742;2022-07-23T04:24:35;98705.19;;;22.66;68.08
65280;BME280;51878;55.748;48.742;2022-07-23T04:27:02;98671.25;;;22.51;68.22
65280;BME280;51878;55.748;48.742;2022-07-23T04:29:30;98655.75;;;22.55;66.88
65280;BME280;51878;55.748;48.742;2022-07-23T04:31:57;98696.97;;;22.51;67.92
65280;BME280;51878;55.748;48.742;2022-07-23T04:34:24;98676.75;;;22.56;66.43
65280;BME280;51878;55.748;48.742;2022-07-23T04:36:53;98693.50;;;22.75;66.35
65280;BME280;51878;55.748;48.742;2022-07-23T04:39:35;98689.75;;;23.05;65.84
65280;BME280;51878;55.748;48.742;2022-07-23T04:42:02;98680.13;;;22.92;65.45
65280;BME280;51878;55.748;48.742;2022-07-23T04:44:30;98658.38;;;22.80;66.41
65280;BME280;51878;55.748;48.742;2022-07-23T04:46:57;98654.75;;;23.24;65.57
65280;BME280;51878;55.748;48.742;2022-07-23T04:49:24;98671.03;;;23.60;62.97
65280;BME280;51878;55.748;48.742;2022-07-23T04:51:51;98672.91;;;23.65;62.56
65280;BME280;51878;55.748;48.742;2022-07-23T04:54:18;98680.56;;;23.78;63.11
65280;BME280;51878;55.748;48.742;2022-07-23T04:56:46;98687.06;;;23.92;65.15
65280;BME280;51878;55.748;48.742;2022-07-23T04:59:13;98673.41;;;24.01;62.32
65280;BME280;51878;55.748;48.742;2022-07-23T05:01:40;98686.41;;;24.01;62.40
65280;BME280;51878;55.748;48.742;2022-07-23T05:04:08;98658.88;;;24.33;59.03
65280;BME280;51878;55.748;48.742;2022-07-23T05:06:36;98690.53;;;24.51;58.59
65280;BME280;51878;55.748;48.742;2022-07-23T05:09:03;98671.78;;;24.43;55.26
65280;BME280;51878;55.748;48.742;2022-07-23T05:11:30;98686.66;;;24.90;54.81
65280;BME280;51878;55.748;48.742;2022-07-23T05:13:57;98684.63;;;25.15;54.62
65280;BME280;51878;55.748;48.742;2022-07-23T05:16:25;98645.06;;;24.52;57.79
65280;BME280;51878;55.748;48.742;2022-07-23T05:18:52;98649.63;;;24.43;57.42
65280;BME280;51878;55.748;48.742;2022-07-23T05:21:20;98647.03;;;24.52;57.23
65280;BME280;51878;55.748;48.742;2022-07-23T05:23:47;98657.53;;;24.74;57.66
65280;BME280;51878;55.748;48.742;2022-07-23T05:26:14;98689.06;;;25.16;58.39
65280;BME280;51878;55.748;48.742;2022-07-23T05:28:41;98683.81;;;25.33;56.75
65280;BME280;51878;55.748;48.742;2022-07-23T05:31:15;98647.91;;;24.66;57.46
65280;BME280;51878;55.748;48.742;2022-07-23T05:33:42;98615.50;;;24.24;57.41
65280;BME280;51878;55.748;48.742;2022-07-23T05:36:10;98683.59;;;24.73;58.27
65280;BME280;51878;55.748;48.742;2022-07-23T05:38:37;98666.88;;;24.59;56.14
65280;BME280;51878;55.748;48.742;2022-07-23T05:41:04;98665.78;;;24.98;54.71
65280;BME280;51878;55.748;48.742;2022-07-23T05:43:31;98680.63;;;24.69;56.10
65280;BME280;51878;55.748;48.742;2022-07-23T05:45:59;98646.34;;;24.60;57.94
65280;BME280;51878;55.748;48.742;2022-07-23T05:48:26;98664.53;;;25.04;56.07
65280;BME280;51878;55.748;48.742;2022-07-23T05:50:53;98674.06;;;25.36;53.11
65280;BME280;51878;55.748;48.742;2022-07-23T05:53:20;98642.66;;;25.22;54.03
65280;BME280;51878;55.748;48.742;2022-07-23T05:55:47;98608.66;;;25.11;52.97
65280;BME280;51878;55.748;48.742;2022-07-23T05:58:14;98638.41;;;25.43;51.39
65280;BME280;51878;55.748;48.742;2022-07-23T06:00:42;98677.28;;;25.57;50.50
65280;BME280;51878;55.748;48.742;2022-07-23T06:03:09;98636.25;;;25.40;50.49
65280;BME280;51878;55.748;48.742;2022-07-23T06:05:36;98644.97;;;25.94;49.59
65280;BME280;51878;55.748;48.742;2022-07-23T06:08:03;98677.50;;;26.35;47.03
65280;BME280;51878;55.748;48.742;2022-07-23T06:10:31;98671.84;;;26.40;48.31
65280;BME280;51878;55.748;48.742;2022-07-23T06:12:58;98677.81;;;26.97;48.01
65280;BME280;51878;55.748;48.742;2022-07-23T06:15:28;98674.91;;;27.03;46.18
65280;BME280;51878;55.748;48.742;2022-07-23T06:17:55;98660.66;;;26.82;46.98
65280;BME280;51878;55.748;48.742;2022-07-23T06:20:22;98638.22;;;27.68;45.04
65280;BME280;51878;55.748;48.742;2022-07-23T06:22:49;98650.53;;;27.22;46.13
65280;BME280;51878;55.748;48.742;2022-07-23T06:25:17;98669.50;;;28.36;42.17
65280;BME280;51878;55.748;48.742;2022-07-23T06:27:46;98651.81;;;28.01;43.82
65280;BME280;51878;55.748;48.742;2022-07-23T06:30:14;98611.44;;;28.38;39.83
65280;BME280;51878;55.748;48.742;2022-07-23T06:32:45;98661.53;;;28.61;41.97
65280;BME280;51878;55.748;48.742;2022-07-23T06:35:13;98632.69;;;29.09;40.70
65280;BME280;51878;55.748;48.742;2022-07-23T06:37:40;98655.78;;;29.62;39.35
65280;BME280;51878;55.748;48.742;2022-07-23T06:40:07;98643.63;;;29.58;39.24
65280;BME280;51878;55.748;48.742;2022-07-23T06:42:36;98627.72;;;29.23;39.28
65280;BME280;51878;55.748;48.742;2022-07-23T06:45:06;98654.47;;;29.59;39.40
65280;BME280;51878;55.748;48.742;2022-07-23T06:47:34;98673.25;;;30.44;38.63
65280;BME280;51878;55.748;48.742;2022-07-23T06:50:01;98664.94;;;30.57;37.59
65280;BME280;51878;55.748;48.742;2022-07-23T06:52:28;98634.31;;;30.81;37.17
65280;BME280;51878;55.748;48.742;2022-07-23T06:54:56;98629.59;;;31.15;36.30
65280;BME280;51878;55.748;48.742;2022-07-23T06:57:23;98669.63;;;33.46;33.28
65280;BME280;51878;55.748;48.742;2022-07-23T06:59:53;98666.72;;;33.02;35.32
65280;BME280;51878;55.748;48.742;2022-07-23T07:02:22;98664.47;;;31.39;35.77
65280;BME280;51878;55.748;48.742;2022-07-23T07:04:49;98637.41;;;31.76;35.91
65280;BME280;51878;55.748;48.742;2022-07-23T07:07:16;98672.19;;;33.51;32.67
65280;BME280;51878;55.748;48.742;2022-07-23T07:09:43;98614.94;;;34.90;30.99
65280;BME280;51878;55.748;48.742;2022-07-23T07:12:12;98639.97;;;33.77;31.69
65280;BME280;51878;55.748;48.742;2022-07-23T07:14:39;98660.34;;;34.18;31.06
65280;BME280;51878;55.748;48.742;2022-07-23T07:17:06;98667.78;;;35.71;29.18
65280;BME280;51878;55.748;48.742;2022-07-23T07:19:33;98670.16;;;35.69;28.70
65280;BME280;51878;55.748;48.742;2022-07-23T07:22:01;98612.19;;;35.52;28.92
65280;BME280;51878;55.748;48.742;2022-07-23T07:24:28;98682.91;;;35.04;30.48
65280;BME280;51878;55.748;48.742;2022-07-23T07:26:59;98616.13;;;35.67;28.80
65280;BME280;51878;55.748;48.742;2022-07-23T07:29:26;98640.38;;;37.24;27.76
65280;BME280;51878;55.748;48.742;2022-07-23T07:31:54;98668.66;;;37.61;27.42
65280;BME280;51878;55.748;48.742;2022-07-23T07:34:21;98642.09;;;37.70;27.02
65280;BME280;51878;55.748;48.742;2022-07-23T07:36:48;98669.84;;;38.39;25.82
65280;BME280;51878;55.748;48.742;2022-07-23T07:39:16;98651.50;;;36.56;26.86
65280;BME280;51878;55.748;48.742;2022-07-23T07:41:43;98611.34;;;38.09;25.98
65280;BME280;51878;55.748;48.742;2022-07-23T07:44:11;98659.31;;;37.23;25.93
65280;BME280;51878;55.748;48.742;2022-07-23T07:46:38;98635.97;;;38.53;24.28
65280;BME280;51878;55.748;48.742;2022-07-23T07:49:05;98623.81;;;38.56;24.95
65280;BME280;51878;55.748;48.742;2022-07-23T07:51:33;98644.22;;;37.80;26.71
65280;BME280;51878;55.748;48.742;2022-07-23T07:54:01;98620.03;;;37.90;25.61
65280;BME280;51878;55.748;48.742;2022-07-23T07:56:29;98570.06;;;36.62;26.88
65280;BME280;51878;55.748;48.742;2022-07-23T07:58:56;98650.94;;;38.50;24.42
65280;BME280;51878;55.748;48.742;2022-07-23T08:01:23;98630.31;;;38.60;24.02
65280;BME280;51878;55.748;48.742;2022-07-23T08:03:50;98642.72;;;39.00;23.94
65280;BME280;51878;55.748;48.742;2022-07-23T08:06:18;98638.38;;;38.03;23.97
65280;BME280;51878;55.748;48.742;2022-07-23T08:08:45;98631.63;;;38.18;25.53
65280;BME280;51878;55.748;48.742;2022-07-23T08:11:12;98640.56;;;35.39;29.29
65280;BME280;51878;55.748;48.742;2022-07-23T08:13:39;98661.22;;;36.59;27.94
65280;BME280;51878;55.748;48.742;2022-07-23T08:16:07;98652.50;;;37.99;26.18
65280;BME280;51878;55.748;48.742;2022-07-23T08:18:34;98636.34;;;37.62;26.43
65280;BME280;51878;55.748;48.742;2022-07-23T08:21:01;98660.63;;;39.22;24.26
65280;BME280;51878;55.748;48.742;2022-07-23T08:23:29;98665.34;;;38.93;24.78
65280;BME280;51878;55.748;48.742;2022-07-23T08:25:57;98667.97;;;39.31;23.78
65280;BME280;51878;55.748;48.742;2022-07-23T08:28:26;98633.19;;;39.44;24.08
65280;BME280;51878;55.748;48.742;2022-07-23T08:30:53;98666.13;;;38.83;24.36
65280;BME280;51878;55.748;48.742;2022-07-23T08:33:21;98661.53;;;39.34;24.56
65280;BME280;51878;55.748;48.742;2022-07-23T08:35:57;98598.59;;;38.37;24.30
65280;BME280;51878;55.748;48.742;2022-07-23T08:38:25;98679.03;;;39.50;23.73
65280;BME280;51878;55.748;48.742;2022-07-23T08:40:54;98671.41;;;37.92;25.85
65280;BME280;51878;55.748;48.742;2022-07-23T08:43:23;98675.00;;;38.81;24.41
65280;BME280;51878;55.748;48.742;2022-07-23T08:45:52;98641.56;;;39.16;23.70
65280;BME280;51878;55.748;48.742;2022-07-23T08:48:22;98676.28;;;38.91;25.19
65280;BME280;51878;55.748;48.742;2022-07-23T08:50:52;98672.81;;;39.23;23.42
65280;BME280;51878;55.748;48.742;2022-07-23T08:53:21;98644.56;;;38.68;23.82
65280;BME280;51878;55.748;48.742;2022-07-23T08:55:51;98648.66;;;38.77;24.15
65280;BME280;51878;55.748;48.742;2022-07-23T08:58:19;98675.25;;;39.24;23.41
65280;BME280;51878;55.748;48.742;2022-07-23T09:00:51;98635.84;;;38.39;24.88
65280;BME280;51878;55.748;48.742;2022-07-23T09:03:22;98676.63;;;38.82;24.77
65280;BME280;51878;55.748;48.742;2022-07-23T09:05:50;98659.75;;;39.04;23.93
65280;BME280;51878;55.748;48.742;2022-07-23T09:08:23;98637.81;;;38.31;24.87
65280;BME280;51878;55.748;48.742;2022-07-23T09:10:57;98620.06;;;38.45;23.71
65280;BME280;51878;55.748;48.742;2022-07-23T09:13:33;98679.53;;;37.93;25.43
65280;BME280;51878;55.748;48.742;2022-07-23T09:18:45;98664.97;;;37.23;26.79
65280;BME280;51878;55.748;48.742;2022-07-23T09:21:41;98673.91;;;38.41;24.62
65280;BME280;51878;55.748;48.742;2022-07-23T09:24:13;98660.63;;;34.99;28.44
65280;BME280;51878;55.748;48.742;2022-07-23T09:26:46;98659.75;;;35.53;28.62
65280;BME280;51878;55.748;48.742;2022-07-23T09:29:21;98672.72;;;36.47;27.15
65280;BME280;51878;55.748;48.742;2022-07-23T09:31:57;98617.69;;;36.90;25.14
65280;BME280;51878;55.748;48.742;2022-07-23T09:34:32;98661.13;;;38.14;23.41
65280;BME280;51878;55.748;48.742;2022-07-23T09:37:14;98636.91;;;37.75;25.17
65280;BME280;51878;55.748;48.742;2022-07-23T09:39:42;98645.63;;;37.59;26.37
65280;BME280;51878;55.748;48.742;2022-07-23T09:42:24;98629.38;;;37.94;24.99
65280;BME280;51878;55.748;48.742;2022-07-23T09:44:56;98645.78;;;36.03;27.23
65280;BME280;51878;55.748;48.742;2022-07-23T09:47:31;98635.84;;;37.53;25.27
65280;BME280;51878;55.748;48.742;2022-07-23T09:52:32;98659.31;;;36.93;26.73
65280;BME280;51878;55.748;48.742;2022-07-23T09:55:04;98633.75;;;37.50;24.49
65280;BME280;51878;55.748;48.742;2022-07-23T09:57:32;98636.81;;;37.34;25.59
65280;BME280;51878;55.748;48.742;2022-07-23T10:00:09;98629.69;;;38.89;23.92
65280;BME280;51878;55.748;48.742;2022-07-23T10:02:38;98634.59;;;37.92;24.64
65280;BME280;51878;55.748;48.742;2022-07-23T10:05:06;98611.69;;;37.59;24.61
65280;BME280;51878;55.748;48.742;2022-07-23T10:07:37;98643.84;;;37.81;25.61
65280;BME280;51878;55.748;48.742;2022-07-23T10:10:05;98638.13;;;37.40;25.20
65280;BME280;51878;55.748;48.742;2022-07-23T10:12:33;98642.16;;;35.79;27.93
65280;BME280;51878;55.748;48.742;2022-07-23T10:15:15;98624.47;;;34.66;28.68
65280;BME280;51878;55.748;48.742;2022-07-23T10:17:43;98634.28;;;36.12;27.05
65280;BME280;51878;55.748;48.742;2022-07-23T10:20:10;98613.56;;;33.97;30.55
65280;BME280;51878;55.748;48.742;2022-07-23T10:22:40;98628.69;;;36.42;26.58
65280;BME280;51878;55.748;48.742;2022-07-23T10:25:32;98634.44;;;35.76;27.26
65280;BME280;51878;55.748;48.742;2022-07-23T10:28:22;98635.72;;;35.40;27.66
65280;BME280;51878;55.748;48.742;2022-07-23T10:31:02;98639.28;;;37.06;24.76
65280;BME280;51878;55.748;48.742;2022-07-23T10:36:58;98637.63;;;34.77;28.12
65280;BME280;51878;55.748;48.742;2022-07-23T10:39:34;98628.78;;;35.14;27.47
65280;BME280;51878;55.748;48.742;2022-07-23T10:42:12;98631.69;;;34.47;28.30
65280;BME280;51878;55.748;48.742;2022-07-23T10:44:49;98627.03;;;35.10;27.81
65280;BME280;51878;55.748;48.742;2022-07-23T10:47:29;98620.31;;;35.34;27.81
65280;BME280;51878;55.748;48.742;2022-07-23T10:50:25;98623.41;;;34.90;29.17
65280;BME280;51878;55.748;48.742;2022-07-23T10:58:05;98603.22;;;35.07;27.22
65280;BME280;51878;55.748;48.742;2022-07-23T11:00:34;98622.81;;;36.54;25.23
65280;BME280;51878;55.748;48.742;2022-07-23T11:03:05;98606.88;;;35.27;28.46
65280;BME280;51878;55.748;48.742;2022-07-23T11:05:43;98603.75;;;34.74;27.89
65280;BME280;51878;55.748;48.742;2022-07-23T11:10:55;98590.44;;;33.72;29.35
65280;BME280;51878;55.748;48.742;2022-07-23T11:23:59;98614.75;;;34.28;29.73
65280;BME280;51878;55.748;48.742;2022-07-23T11:32:04;98614.25;;;34.77;27.94
65280;BME280;51878;55.748;48.742;2022-07-23T11:34:32;98609.66;;;33.86;29.84
65280;BME280;51878;55.748;48.742;2022-07-23T11:37:00;98564.88;;;34.64;28.26
65280;BME280;51878;55.748;48.742;2022-07-23T11:39:29;98552.28;;;33.43;30.65
65280;BME280;51878;55.748;48.742;2022-07-23T11:41:57;98585.22;;;33.58;32.36
65280;BME280;51878;55.748;48.742;2022-07-23T11:44:34;98589.09;;;34.13;30.74
65280;BME280;51878;55.748;48.742;2022-07-23T11:47:06;98580.06;;;34.08;30.98
65280;BME280;51878;55.748;48.742;2022-07-23T11:49:34;98582.78;;;34.04;30.02
65280;BME280;51878;55.748;48.742;2022-07-23T11:52:09;98574.81;;;34.57;28.85
65280;BME280;51878;55.748;48.742;2022-07-23T11:54:48;98591.41;;;34.27;29.24
65280;BME280;51878;55.748;48.742;2022-07-23T11:57:16;98594.41;;;34.19;29.38
65280;BME280;51878;55.748;48.742;2022-07-23T11:59:46;98574.69;;;35.28;27.52
65280;BME280;51878;55.748;48.742;2022-07-23T12:02:14;98559.44;;;34.35;28.56
65280;BME280;51878;55.748;48.742;2022-07-23T12:04:47;98493.00;;;33.64;28.74
65280;BME280;51878;55.748;48.742;2022-07-23T12:07:28;98585.63;;;33.28;30.49
65280;BME280;51878;55.748;48.742;2022-07-23T12:09:57;98587.78;;;33.95;30.04
65280;BME280;51878;55.748;48.742;2022-07-23T12:12:24;98562.41;;;33.31;30.64
65280;BME280;51878;55.748;48.742;2022-07-23T12:17:20;98544.53;;;33.08;31.42
65280;BME280;51878;55.748;48.742;2022-07-23T12:19:48;98543.13;;;33.02;31.27
65280;BME280;51878;55.748;48.742;2022-07-23T12:22:15;98576.22;;;33.37;29.96
65280;BME280;51878;55.748;48.742;2022-07-23T12:25:00;98572.41;;;33.01;30.52
65280;BME280;51878;55.748;48.742;2022-07-23T12:27:29;98557.63;;;32.76;30.93
65280;BME280;51878;55.748;48.742;2022-07-23T12:29:56;98559.00;;;32.41;32.53
65280;BME280;51878;55.748;48.742;2022-07-23T12:32:28;98539.16;;;32.22;32.25
65280;BME280;51878;55.748;48.742;2022-07-23T12:35:04;98567.53;;;31.96;33.28
65280;BME280;51878;55.748;48.742;2022-07-23T12:37:36;98574.31;;;31.70;34.04
65280;BME280;51878;55.748;48.742;2022-07-23T12:40:24;98553.16;;;31.73;34.30
65280;BME280;51878;55.748;48.742;2022-07-23T12:42:58;98543.00;;;31.68;33.41
65280;BME280;51878;55.748;48.742;2022-07-23T12:45:27;98530.13;;;31.55;34.57
65280;BME280;51878;55.748;48.742;2022-07-23T12:50:35;98560.66;;;32.18;32.90
65280;BME280;51878;55.748;48.742;2022-07-23T12:53:11;98565.41;;;32.94;31.73
65280;BME280;51878;55.748;48.742;2022-07-23T12:55:39;98519.84;;;32.20;31.82
65280;BME280;51878;55.748;48.742;2022-07-23T12:58:57;98529.13;;;32.08;32.13
65280;BME280;51878;55.748;48.742;2022-07-23T13:01:29;98531.25;;;31.41;33.87
65280;BME280;51878;55.748;48.742;2022-07-23T13:04:09;98567.28;;;31.52;35.68
65280;BME280;51878;55.748;48.742;2022-07-23T13:06:56;98563.34;;;32.14;33.15
65280;BME280;51878;55.748;48.742;2022-07-23T13:09:33;98525.25;;;31.06;34.47
65280;BME280;51878;55.748;48.742;2022-07-23T13:12:07;98516.25;;;30.79;34.94
65280;BME280;51878;55.748;48.742;2022-07-23T13:14:36;98545.63;;;30.73;35.82
65280;BME280;51878;55.748;48.742;2022-07-23T13:17:03;98569.13;;;30.39;36.41
65280;BME280;51878;55.748;48.742;2022-07-23T13:19:30;98536.41;;;30.31;36.44
65280;BME280;51878;55.748;48.742;2022-07-23T13:21:57;98568.63;;;30.07;38.02
65280;BME280;51878;55.748;48.742;2022-07-23T13:24:24;98567.91;;;30.19;38.38
65280;BME280;51878;55.748;48.742;2022-07-23T13:26:51;98562.13;;;29.94;39.72
65280;BME280;51878;55.748;48.742;2022-07-23T13:29:19;98526.84;;;29.34;41.47
65280;BME280;51878;55.748;48.742;2022-07-23T13:31:46;98561.72;;;29.19;42.79
65280;BME280;51878;55.748;48.742;2022-07-23T13:34:16;98555.03;;;28.68;43.16
65280;BME280;51878;55.748;48.742;2022-07-23T13:36:43;98521.53;;;28.85;42.85
65280;BME280;51878;55.748;48.742;2022-07-23T13:39:10;98557.13;;;28.97;42.83